createdAt,value
2022-10-15T00:01:26.559Z,100.00
2022-10-15T00:02:28.955Z,100.00
2022-10-15T00:03:31.115Z,100.00
2022-10-15T00:04:34.467Z,100.00
2022-10-15T00:05:40.398Z,100.00
2022-10-15T00:06:42.665Z,100.00
2022-10-15T00:07:44.796Z,100.00
2022-10-15T00:08:48.418Z,100.00
2022-10-15T00:09:53.387Z,100.00
2022-10-15T00:10:55.742Z,100.00
2022-10-15T00:11:58.410Z,100.00
2022-10-15T00:13:00.575Z,100.00
2022-10-15T00:14:03.181Z,100.00
2022-10-15T00:15:05.802Z,100.00
2022-10-15T00:16:11.169Z,100.00
2022-10-15T00:17:13.183Z,100.00
2022-10-15T00:18:16.164Z,100.00
2022-10-15T00:19:18.247Z,100.00
2022-10-15T00:20:23.812Z,100.00
2022-10-15T00:21:28.924Z,100.00
2022-10-15T00:22:30.972Z,100.00
2022-10-15T00:23:34.003Z,100.00
2022-10-15T00:24:37.266Z,100.00
2022-10-15T00:25:42.656Z,100.00
2022-10-15T00:26:44.771Z,100.00
2022-10-15T00:27:47.446Z,100.00
2022-10-15T00:28:52.399Z,100.00
2022-10-15T00:30:01.328Z,100.00
2022-10-15T00:31:07.722Z,100.00
2022-10-15T00:32:15.613Z,100.00
2022-10-15T00:33:20.326Z,100.00
2022-10-15T00:34:22.482Z,100.00
2022-10-15T00:35:24.510Z,100.00
2022-10-15T00:36:33.140Z,100.00
2022-10-15T00:37:35.323Z,100.00
2022-10-15T00:38:41.281Z,100.00
2022-10-15T00:39:45.863Z,100.00
2022-10-15T00:40:48.493Z,100.00
2022-10-15T00:41:50.513Z,100.00
2022-10-15T00:42:54.343Z,100.00
2022-10-15T00:44:29.679Z,100.00
2022-10-15T00:45:32.083Z,100.00
2022-10-15T00:46:45.671Z,100.00
2022-10-15T00:47:49.310Z,100.00
2022-10-15T00:48:58.794Z,100.00
2022-10-15T00:50:16.624Z,100.00
2022-10-15T00:51:23.511Z,100.00
2022-10-15T00:52:58.203Z,100.00
2022-10-15T00:54:00.711Z,100.00
2022-10-15T00:55:11.441Z,100.00
2022-10-15T00:56:16.250Z,100.00
2022-10-15T00:57:18.816Z,100.00
2022-10-15T00:58:29.811Z,100.00
2022-10-15T00:59:33.448Z,100.00
2022-10-15T01:00:35.834Z,100.00
2022-10-15T01:01:38.015Z,100.00
2022-10-15T01:02:40.213Z,100.00
2022-10-15T01:03:44.016Z,100.00
2022-10-15T01:04:47.033Z,100.00
2022-10-15T01:05:53.237Z,100.00
2022-10-15T01:06:56.525Z,100.00
2022-10-15T01:08:01.123Z,100.00
2022-10-15T01:09:04.179Z,100.00
2022-10-15T01:10:12.672Z,100.00
2022-10-15T01:11:26.963Z,100.00
2022-10-15T01:12:47.747Z,100.00
2022-10-15T01:14:23.050Z,100.00
2022-10-15T01:15:39.673Z,100.00
2022-10-15T01:16:50.586Z,100.00
2022-10-15T01:17:55.488Z,100.00
2022-10-15T01:19:07.638Z,100.00
2022-10-15T01:20:10.139Z,100.00
2022-10-15T01:21:27.079Z,100.00
2022-10-15T01:22:52.202Z,100.00
2022-10-15T01:24:20.092Z,100.00
2022-10-15T01:25:44.815Z,100.00
2022-10-15T01:27:15.069Z,100.00
2022-10-15T01:28:19.010Z,100.00
2022-10-15T01:30:13.016Z,100.00
2022-10-15T01:31:15.392Z,100.00
2022-10-15T01:32:30.692Z,100.00
2022-10-15T01:33:37.303Z,100.00
2022-10-15T01:35:01.686Z,100.00
2022-10-15T01:36:34.181Z,100.00
2022-10-15T01:37:46.940Z,100.00
2022-10-15T01:38:58.519Z,100.00
2022-10-15T01:40:28.017Z,100.00
2022-10-15T01:41:49.468Z,100.00
2022-10-15T01:42:58.458Z,100.00
2022-10-15T01:44:32.359Z,100.00
2022-10-15T01:46:04.311Z,100.00
2022-10-15T01:47:48.443Z,100.00
2022-10-15T01:48:56.890Z,100.00
2022-10-15T01:50:03.250Z,100.00
2022-10-15T01:51:09.803Z,100.00
2022-10-15T01:52:22.493Z,100.00
2022-10-15T01:53:27.109Z,100.00
2022-10-15T01:54:32.592Z,100.00
2022-10-15T01:55:37.204Z,100.00
2022-10-15T01:56:41.200Z,100.00
2022-10-15T01:57:45.452Z,100.00
2022-10-15T01:58:57.170Z,100.00
2022-10-15T02:00:01.824Z,100.00
2022-10-15T02:01:07.091Z,100.00
2022-10-15T02:02:11.728Z,100.00
2022-10-15T02:03:15.410Z,100.00
2022-10-15T02:04:25.497Z,100.00
2022-10-15T02:05:35.510Z,100.00
2022-10-15T02:06:44.807Z,100.00
2022-10-15T02:08:10.908Z,100.00
2022-10-15T02:09:28.763Z,100.00
2022-10-15T02:10:57.165Z,100.00
2022-10-15T02:12:14.987Z,100.00
2022-10-15T02:13:44.914Z,100.00
2022-10-15T02:15:08.977Z,100.00
2022-10-15T02:16:27.609Z,100.00
2022-10-15T02:17:39.510Z,100.00
2022-10-15T02:19:18.431Z,100.00
2022-10-15T02:20:25.102Z,100.00
2022-10-15T02:21:54.579Z,100.00
2022-10-15T02:23:14.076Z,100.00
2022-10-15T02:24:25.762Z,100.00
2022-10-15T02:25:29.096Z,100.00
2022-10-15T02:26:37.065Z,100.00
2022-10-15T02:27:40.452Z,100.00
2022-10-15T02:28:48.633Z,100.00
2022-10-15T02:29:53.679Z,100.00
2022-10-15T02:30:59.530Z,100.00
2022-10-15T02:32:05.807Z,100.00
2022-10-15T02:33:08.996Z,100.00
2022-10-15T02:34:20.242Z,100.00
2022-10-15T02:35:36.334Z,100.00
2022-10-15T02:36:43.271Z,100.00
2022-10-15T02:37:49.868Z,100.00
2022-10-15T02:38:58.074Z,100.00
2022-10-15T02:40:00.125Z,100.00
2022-10-15T02:41:05.289Z,100.00
2022-10-15T02:42:07.379Z,100.00
2022-10-15T02:43:11.452Z,100.00
2022-10-15T02:44:14.780Z,100.00
2022-10-15T02:45:18.416Z,100.00
2022-10-15T02:46:21.174Z,100.00
2022-10-15T02:47:23.231Z,100.00
2022-10-15T02:48:25.617Z,100.00
2022-10-15T02:49:30.808Z,100.00
2022-10-15T02:50:32.927Z,100.00
2022-10-15T02:51:35.979Z,100.00
2022-10-15T02:52:39.770Z,100.00
2022-10-15T02:53:41.770Z,100.00
2022-10-15T02:54:48.059Z,100.00
2022-10-15T02:55:51.851Z,100.00
2022-10-15T02:56:53.891Z,100.00
2022-10-15T02:57:57.637Z,100.00
2022-10-15T02:59:00.200Z,100.00
2022-10-15T03:00:02.543Z,100.00
2022-10-15T03:01:05.773Z,100.00
2022-10-15T03:02:14.142Z,100.00
2022-10-15T03:03:19.196Z,100.00
2022-10-15T03:04:22.311Z,100.00
2022-10-15T03:06:34.105Z,100.00
2022-10-15T03:07:40.404Z,100.00
2022-10-15T03:08:50.444Z,100.00
2022-10-15T03:09:54.811Z,100.00
2022-10-15T03:11:01.731Z,100.00
2022-10-15T03:12:05.841Z,100.00
2022-10-15T03:13:08.585Z,100.00
2022-10-15T03:14:19.947Z,100.00
2022-10-15T03:15:24.671Z,100.00
2022-10-15T03:16:26.948Z,100.00
2022-10-15T03:17:33.214Z,100.00
2022-10-15T03:18:40.503Z,100.00
2022-10-15T03:19:46.664Z,100.00
2022-10-15T03:20:57.025Z,100.00
2022-10-15T03:21:59.601Z,100.00
2022-10-15T03:23:11.007Z,100.00
2022-10-15T03:24:14.602Z,100.00
2022-10-15T03:25:18.956Z,99.59
2022-10-15T03:26:23.107Z,99.33
2022-10-15T03:27:26.801Z,99.30
2022-10-15T03:28:29.598Z,99.71
2022-10-15T03:29:33.061Z,100.00
2022-10-15T03:30:42.777Z,100.00
2022-10-15T03:31:46.366Z,100.00
2022-10-15T03:32:48.684Z,100.00
2022-10-15T03:33:51.597Z,100.00
2022-10-15T03:34:57.785Z,99.27
2022-10-15T03:36:00.132Z,99.15
2022-10-15T03:37:02.526Z,99.00
2022-10-15T03:38:06.680Z,99.05
2022-10-15T03:39:09.339Z,99.67
2022-10-15T03:40:14.891Z,100.00
2022-10-15T03:41:18.707Z,100.00
2022-10-15T03:42:22.568Z,100.00
2022-10-15T03:43:26.017Z,100.00
2022-10-15T03:44:31.394Z,100.00
2022-10-15T03:45:42.850Z,100.00
2022-10-15T03:46:56.948Z,100.00
2022-10-15T03:48:04.268Z,100.00
2022-10-15T03:49:10.227Z,100.00
2022-10-15T03:50:15.266Z,100.00
2022-10-15T03:51:22.751Z,99.75
2022-10-15T03:52:40.731Z,100.00
2022-10-15T03:53:43.844Z,99.48
2022-10-15T03:54:49.653Z,98.65
2022-10-15T03:55:54.872Z,98.22
2022-10-15T03:56:57.534Z,97.58
2022-10-15T03:58:09.312Z,98.14
2022-10-15T03:59:17.238Z,98.74
2022-10-15T04:00:30.635Z,99.78
2022-10-15T04:01:36.553Z,98.74
2022-10-15T04:02:42.074Z,97.59
2022-10-15T04:03:55.167Z,98.32
2022-10-15T04:05:00.424Z,98.15
2022-10-15T04:06:03.512Z,99.81
2022-10-15T04:07:08.193Z,100.00
2022-10-15T04:08:10.415Z,99.34
2022-10-15T04:09:16.144Z,99.49
2022-10-15T04:10:18.615Z,98.19
2022-10-15T04:11:23.885Z,98.66
2022-10-15T04:12:35.957Z,98.72
2022-10-15T04:13:40.431Z,98.38
2022-10-15T04:14:43.038Z,98.19
2022-10-15T04:15:45.369Z,97.82
2022-10-15T04:16:48.467Z,98.34
2022-10-15T04:17:55.824Z,98.08
2022-10-15T04:18:59.179Z,97.92
2022-10-15T04:20:01.644Z,98.99
2022-10-15T04:21:04.362Z,98.91
2022-10-15T04:22:13.412Z,97.86
2022-10-15T04:23:22.376Z,97.03
2022-10-15T04:25:03.368Z,97.91
2022-10-15T04:26:07.488Z,98.81
2022-10-15T04:27:09.598Z,97.77
2022-10-15T04:28:12.182Z,97.46
2022-10-15T04:29:15.973Z,97.43
2022-10-15T04:30:18.257Z,96.66
2022-10-15T04:31:42.646Z,97.43
2022-10-15T04:32:45.508Z,96.81
2022-10-15T04:33:49.414Z,96.53
2022-10-15T04:34:52.202Z,95.94
2022-10-15T04:36:06.267Z,95.59
2022-10-15T04:37:23.379Z,95.27
2022-10-15T04:38:25.750Z,94.96
2022-10-15T04:39:36.474Z,95.30
2022-10-15T04:40:41.301Z,95.06
2022-10-15T04:41:44.499Z,96.17
2022-10-15T04:42:57.499Z,95.95
2022-10-15T04:44:01.303Z,96.40
2022-10-15T04:45:07.515Z,95.83
2022-10-15T04:46:10.704Z,95.68
2022-10-15T04:47:13.975Z,95.03
2022-10-15T04:48:19.442Z,94.60
2022-10-15T04:49:22.736Z,95.02
2022-10-15T04:50:25.464Z,94.87
2022-10-15T04:51:45.954Z,95.17
2022-10-15T04:52:52.199Z,94.32
2022-10-15T04:54:09.596Z,95.19
2022-10-15T04:55:21.651Z,94.63
2022-10-15T04:56:25.134Z,95.05
2022-10-15T04:57:28.064Z,96.82
2022-10-15T04:58:32.653Z,96.14
2022-10-15T04:59:34.713Z,95.85
2022-10-15T05:01:08.615Z,96.01
2022-10-15T05:02:26.403Z,96.64
2022-10-15T05:03:42.493Z,94.20
2022-10-15T05:04:47.091Z,93.73
2022-10-15T05:05:49.282Z,94.58
2022-10-15T05:06:51.764Z,95.01
2022-10-15T05:07:55.435Z,96.46
2022-10-15T05:08:57.408Z,96.28
2022-10-15T05:10:05.461Z,94.52
2022-10-15T05:11:20.858Z,94.21
2022-10-15T05:12:23.082Z,94.49
2022-10-15T05:13:25.136Z,93.58
2022-10-15T05:14:30.316Z,93.71
2022-10-15T05:15:47.118Z,93.77
2022-10-15T05:16:51.348Z,94.68
2022-10-15T05:17:53.675Z,94.44
2022-10-15T05:19:04.809Z,94.10
2022-10-15T05:20:08.155Z,93.51
2022-10-15T05:21:14.416Z,92.91
2022-10-15T05:22:18.293Z,93.46
2022-10-15T05:23:26.956Z,93.75
2022-10-15T05:24:42.860Z,93.10
2022-10-15T05:26:04.309Z,92.51
2022-10-15T05:27:06.296Z,92.56
2022-10-15T05:28:09.176Z,92.55
2022-10-15T05:29:11.149Z,92.70
2022-10-15T05:30:13.762Z,92.78
2022-10-15T05:31:25.192Z,92.83
2022-10-15T05:32:37.365Z,92.22
2022-10-15T05:33:39.817Z,91.55
2022-10-15T05:34:41.946Z,91.67
2022-10-15T05:35:49.219Z,91.42
2022-10-15T05:36:51.270Z,92.55
2022-10-15T05:37:55.959Z,91.87
2022-10-15T05:39:03.160Z,91.06
2022-10-15T05:40:08.099Z,91.10
2022-10-15T05:41:10.929Z,90.05
2022-10-15T05:42:13.089Z,89.79
2022-10-15T05:43:25.909Z,90.81
2022-10-15T05:44:38.904Z,92.10
2022-10-15T05:45:41.142Z,91.98
2022-10-15T05:46:43.329Z,91.36
2022-10-15T05:47:55.370Z,90.69
2022-10-15T05:48:59.205Z,91.02
2022-10-15T05:50:05.155Z,91.38
2022-10-15T05:51:16.147Z,89.94
2022-10-15T05:52:19.444Z,90.71
2022-10-15T05:53:58.577Z,90.53
2022-10-15T05:55:02.300Z,91.57
2022-10-15T05:56:05.677Z,91.11
2022-10-15T05:57:08.358Z,92.52
2022-10-15T05:58:10.646Z,92.38
2022-10-15T05:59:13.300Z,92.70
2022-10-15T06:00:16.835Z,94.71
2022-10-15T06:01:27.472Z,92.43
2022-10-15T06:02:29.839Z,91.56
2022-10-15T06:03:32.721Z,91.06
2022-10-15T06:04:35.824Z,92.71
2022-10-15T06:05:38.376Z,91.80
2022-10-15T06:06:41.411Z,91.16
2022-10-15T06:07:44.444Z,89.63
2022-10-15T06:08:48.356Z,88.67
2022-10-15T06:09:50.594Z,88.01
2022-10-15T06:10:52.904Z,87.25
2022-10-15T06:11:54.911Z,87.70
2022-10-15T06:13:02.064Z,87.68
2022-10-15T06:14:04.195Z,87.65
2022-10-15T06:15:06.874Z,87.19
2022-10-15T06:16:09.894Z,86.69
2022-10-15T06:17:14.422Z,86.78
2022-10-15T06:18:17.602Z,86.87
2022-10-15T06:19:19.602Z,86.27
2022-10-15T06:20:22.635Z,86.58
2022-10-15T06:21:24.870Z,85.92
2022-10-15T06:22:27.078Z,85.79
2022-10-15T06:23:29.352Z,86.08
2022-10-15T06:24:31.423Z,85.50
2022-10-15T06:25:36.451Z,85.38
2022-10-15T06:26:38.454Z,85.72
2022-10-15T06:27:40.684Z,86.34
2022-10-15T06:28:42.743Z,87.32
2022-10-15T06:29:44.722Z,87.20
2022-10-15T06:30:46.802Z,86.81
2022-10-15T06:31:49.495Z,87.74
2022-10-15T06:32:53.095Z,85.90
2022-10-15T06:33:55.086Z,84.49
2022-10-15T06:34:57.217Z,84.90
2022-10-15T06:36:10.907Z,84.94
2022-10-15T06:37:13.275Z,84.51
2022-10-15T06:38:15.634Z,84.32
2022-10-15T06:39:18.401Z,83.41
2022-10-15T06:40:20.684Z,83.93
2022-10-15T06:41:23.650Z,82.63
2022-10-15T06:42:26.309Z,83.37
2022-10-15T06:43:32.642Z,83.50
2022-10-15T06:44:36.900Z,83.12
2022-10-15T06:45:42.640Z,83.42
2022-10-15T06:46:52.112Z,83.02
2022-10-15T06:47:55.217Z,83.10
2022-10-15T06:48:57.417Z,81.91
2022-10-15T06:50:00.827Z,81.85
2022-10-15T06:51:03.426Z,83.32
2022-10-15T06:52:06.197Z,82.50
2022-10-15T06:53:08.783Z,81.96
2022-10-15T06:54:12.250Z,81.60
2022-10-15T06:55:14.373Z,81.34
2022-10-15T06:56:16.552Z,81.35
2022-10-15T06:57:20.553Z,81.35
2022-10-15T06:58:22.571Z,81.43
2022-10-15T06:59:27.073Z,80.65
2022-10-15T07:01:39.865Z,80.67
2022-10-15T07:02:45.765Z,81.01
2022-10-15T07:03:54.155Z,81.38
2022-10-15T07:04:56.394Z,82.63
2022-10-15T07:06:06.102Z,82.82
2022-10-15T07:07:08.220Z,83.35
2022-10-15T07:08:10.559Z,83.62
2022-10-15T07:09:13.107Z,83.39
2022-10-15T07:10:16.262Z,84.11
2022-10-15T07:11:18.483Z,82.28
2022-10-15T07:12:22.656Z,80.68
2022-10-15T07:13:25.158Z,80.33
2022-10-15T07:14:27.050Z,80.25
2022-10-15T07:15:29.748Z,79.97
2022-10-15T07:16:31.870Z,78.87
2022-10-15T07:17:35.378Z,78.58
2022-10-15T07:18:38.220Z,77.70
2022-10-15T07:19:41.553Z,77.89
2022-10-15T07:20:43.488Z,76.77
2022-10-15T07:21:45.611Z,77.40
2022-10-15T07:22:49.256Z,79.04
2022-10-15T07:23:52.440Z,80.45
2022-10-15T07:24:54.700Z,80.28
2022-10-15T07:26:01.150Z,79.41
2022-10-15T07:27:08.324Z,80.18
2022-10-15T07:28:20.663Z,79.38
2022-10-15T07:29:25.024Z,78.20
2022-10-15T07:30:30.058Z,78.11
2022-10-15T07:31:32.303Z,78.25
2022-10-15T07:32:35.215Z,78.44
2022-10-15T07:33:37.656Z,79.55
2022-10-15T07:34:39.767Z,80.84
2022-10-15T07:35:44.456Z,81.19
2022-10-15T07:36:46.506Z,80.94
2022-10-15T07:37:50.945Z,79.72
2022-10-15T07:38:55.794Z,79.87
2022-10-15T07:39:58.370Z,79.81
2022-10-15T07:41:01.538Z,78.60
2022-10-15T07:42:07.224Z,79.06
2022-10-15T07:43:09.932Z,80.02
2022-10-15T07:44:12.401Z,78.96
2022-10-15T07:45:14.566Z,79.72
2022-10-15T07:46:16.509Z,79.12
2022-10-15T07:47:18.939Z,78.09
2022-10-15T07:48:21.152Z,79.44
2022-10-15T07:49:23.382Z,79.53
2022-10-15T07:50:28.126Z,79.26
2022-10-15T07:51:35.799Z,79.05
2022-10-15T07:52:38.271Z,78.67
2022-10-15T07:53:40.633Z,78.82
2022-10-15T07:54:42.762Z,79.19
2022-10-15T07:55:50.353Z,78.09
2022-10-15T07:56:52.411Z,77.98
2022-10-15T07:58:00.507Z,78.06
2022-10-15T07:59:02.960Z,78.34
2022-10-15T08:00:06.714Z,76.75
2022-10-15T08:01:14.589Z,77.28
2022-10-15T08:02:18.663Z,77.87
2022-10-15T08:03:21.226Z,77.27
2022-10-15T08:04:23.348Z,76.88
2022-10-15T08:05:25.300Z,77.52
2022-10-15T08:06:27.552Z,76.88
2022-10-15T08:07:29.690Z,77.20
2022-10-15T08:08:33.032Z,76.40
2022-10-15T08:09:35.613Z,75.95
2022-10-15T08:10:37.765Z,76.88
2022-10-15T08:11:39.740Z,76.68
2022-10-15T08:12:45.148Z,75.40
2022-10-15T08:13:50.187Z,75.23
2022-10-15T08:14:52.194Z,76.51
2022-10-15T08:15:57.874Z,76.24
2022-10-15T08:17:03.924Z,76.13
2022-10-15T08:18:06.027Z,75.21
2022-10-15T08:19:08.088Z,75.11
2022-10-15T08:20:11.172Z,74.89
2022-10-15T08:21:13.776Z,75.16
2022-10-15T08:22:16.983Z,75.21
2022-10-15T08:23:19.165Z,74.85
2022-10-15T08:24:21.485Z,74.93
2022-10-15T08:25:23.749Z,75.09
2022-10-15T08:26:26.793Z,75.30
2022-10-15T08:27:28.932Z,75.11
2022-10-15T08:28:34.732Z,73.78
2022-10-15T08:29:40.281Z,73.67
2022-10-15T08:30:45.812Z,72.83
2022-10-15T08:31:51.890Z,72.66
2022-10-15T08:32:58.695Z,72.56
2022-10-15T08:34:02.202Z,72.64
2022-10-15T08:35:06.494Z,73.41
2022-10-15T08:36:08.911Z,73.01
2022-10-15T08:37:12.279Z,73.78
2022-10-15T08:38:17.492Z,73.00
2022-10-15T08:39:21.851Z,72.73
2022-10-15T08:40:23.960Z,72.04
2022-10-15T08:41:41.106Z,73.21
2022-10-15T08:42:46.203Z,72.52
2022-10-15T08:43:51.723Z,72.39
2022-10-15T08:45:02.120Z,71.90
2022-10-15T08:46:12.793Z,72.93
2022-10-15T08:47:45.232Z,73.17
2022-10-15T08:48:56.807Z,75.80
2022-10-15T08:50:01.389Z,77.52
2022-10-15T08:51:28.647Z,75.23
2022-10-15T08:52:36.876Z,75.69
2022-10-15T08:53:52.971Z,75.00
2022-10-15T08:54:56.844Z,74.69
2022-10-15T08:56:13.755Z,73.20
2022-10-15T08:57:37.580Z,74.63
2022-10-15T08:58:55.180Z,74.06
2022-10-15T09:00:22.713Z,73.09
2022-10-15T09:01:50.566Z,71.88
2022-10-15T09:03:05.617Z,73.19
2022-10-15T09:04:19.788Z,73.22
2022-10-15T09:05:43.129Z,72.66
2022-10-15T09:06:47.227Z,71.55
2022-10-15T09:08:21.673Z,71.11
2022-10-15T09:09:41.203Z,71.42
2022-10-15T09:10:53.772Z,72.33
2022-10-15T09:12:17.509Z,73.57
2022-10-15T09:13:31.130Z,73.59
2022-10-15T09:14:41.553Z,74.08
2022-10-15T09:15:54.094Z,73.07
2022-10-15T09:17:26.225Z,72.53
2022-10-15T09:18:45.164Z,72.80
2022-10-15T09:20:05.983Z,71.80
2022-10-15T09:21:09.949Z,72.27
2022-10-15T09:22:18.559Z,72.05
2022-10-15T09:23:28.632Z,72.13
2022-10-15T09:24:31.345Z,72.15
2022-10-15T09:25:37.070Z,72.73
2022-10-15T09:26:52.032Z,71.91
2022-10-15T09:27:54.519Z,71.13
2022-10-15T09:29:22.386Z,71.04
2022-10-15T09:30:47.734Z,71.94
2022-10-15T09:32:10.707Z,72.21
2022-10-15T09:33:45.861Z,71.56
2022-10-15T09:35:00.932Z,71.80
2022-10-15T09:36:27.624Z,72.48
2022-10-15T09:37:48.127Z,70.63
2022-10-15T09:38:55.944Z,70.46
2022-10-15T09:40:23.216Z,69.97
2022-10-15T09:41:56.590Z,69.97
2022-10-15T09:43:00.324Z,69.64
2022-10-15T09:44:05.660Z,69.39
2022-10-15T09:45:15.584Z,69.45
2022-10-15T09:46:18.363Z,68.96
2022-10-15T09:47:37.322Z,68.44
2022-10-15T09:48:51.658Z,67.54
2022-10-15T09:49:53.706Z,68.32
2022-10-15T09:51:24.117Z,68.65
2022-10-15T09:53:06.123Z,67.96
2022-10-15T09:54:30.137Z,67.50
2022-10-15T09:55:52.226Z,68.17
2022-10-15T09:57:00.194Z,68.79
2022-10-15T09:58:10.646Z,68.54
2022-10-15T09:59:39.397Z,68.13
2022-10-15T10:00:57.377Z,67.02
2022-10-15T10:02:14.037Z,67.00
2022-10-15T10:03:17.251Z,67.30
2022-10-15T10:04:22.237Z,67.55
2022-10-15T10:05:32.787Z,67.81
2022-10-15T10:06:48.004Z,67.06
2022-10-15T10:07:50.612Z,67.56
2022-10-15T10:08:56.391Z,67.92
2022-10-15T10:10:07.450Z,68.37
2022-10-15T10:11:13.023Z,68.41
2022-10-15T10:12:29.083Z,68.65
2022-10-15T10:13:34.370Z,68.84
2022-10-15T10:14:43.139Z,68.67
2022-10-15T10:15:46.364Z,67.92
2022-10-15T10:17:17.479Z,67.95
2022-10-15T10:18:23.180Z,67.98
2022-10-15T10:19:25.200Z,68.75
2022-10-15T10:20:32.729Z,68.27
2022-10-15T10:21:39.490Z,68.34
2022-10-15T10:22:51.271Z,69.45
2022-10-15T10:23:54.222Z,69.43
2022-10-15T10:24:56.401Z,68.67
2022-10-15T10:26:00.107Z,68.46
2022-10-15T10:28:16.877Z,68.54
2022-10-15T10:29:36.550Z,68.22
2022-10-15T10:30:48.264Z,68.33
2022-10-15T10:31:52.456Z,68.65
2022-10-15T10:33:06.492Z,68.71
2022-10-15T10:34:16.297Z,69.10
2022-10-15T10:35:23.060Z,69.34
2022-10-15T10:36:34.052Z,68.63
2022-10-15T10:37:44.046Z,68.75
2022-10-15T10:39:25.885Z,68.82
2022-10-15T10:40:36.976Z,69.98
2022-10-15T10:42:09.703Z,69.45
2022-10-15T10:43:17.578Z,72.33
2022-10-15T10:44:30.790Z,72.73
2022-10-15T10:45:35.082Z,73.63
2022-10-15T10:46:37.196Z,72.41
2022-10-15T10:47:40.646Z,73.44
2022-10-15T10:48:52.128Z,73.93
2022-10-15T10:49:56.702Z,72.80
2022-10-15T10:51:16.857Z,72.34
2022-10-15T10:52:40.582Z,71.76
2022-10-15T10:54:35.794Z,71.86
2022-10-15T10:56:44.417Z,71.98
2022-10-15T10:58:08.566Z,71.62
2022-10-15T10:59:46.298Z,71.27
2022-10-15T11:01:51.484Z,71.53
2022-10-15T11:03:22.950Z,71.04
2022-10-15T11:05:48.879Z,70.29
2022-10-15T11:07:50.849Z,71.09
2022-10-15T11:11:47.317Z,71.87
2022-10-15T11:13:08.488Z,74.61
2022-10-15T11:18:05.830Z,71.63
2022-10-15T11:19:59.601Z,72.15
2022-10-15T11:21:07.214Z,70.84
2022-10-15T11:22:24.369Z,69.99
2022-10-15T11:24:05.318Z,70.19
2022-10-15T11:25:28.583Z,69.55
2022-10-15T11:26:41.691Z,71.21
2022-10-15T11:28:05.578Z,69.48
2022-10-15T11:29:36.415Z,69.39
2022-10-15T11:33:01.837Z,70.94
2022-10-15T11:34:03.743Z,70.53
2022-10-15T11:35:48.268Z,69.88
2022-10-15T11:37:23.408Z,71.17
2022-10-15T11:38:39.149Z,71.21
2022-10-15T11:39:54.866Z,73.13
2022-10-15T11:41:36.582Z,72.28
2022-10-15T11:42:57.398Z,71.02
2022-10-15T11:44:31.001Z,69.06
2022-10-15T11:45:52.758Z,69.08
2022-10-15T11:47:03.862Z,69.08
2022-10-15T11:48:23.009Z,68.66
2022-10-15T11:49:59.480Z,68.92
2022-10-15T11:51:23.581Z,68.57
2022-10-15T11:52:45.298Z,68.75
2022-10-15T11:53:57.855Z,68.78
2022-10-15T11:55:08.116Z,68.29
2022-10-15T11:57:00.610Z,68.48
2022-10-15T12:00:18.285Z,67.94
2022-10-15T12:01:29.524Z,68.25
2022-10-15T12:02:38.484Z,69.72
2022-10-15T12:03:51.601Z,71.35
2022-10-15T12:05:01.469Z,68.77
2022-10-15T12:08:26.257Z,68.47
2022-10-15T12:09:36.990Z,69.44
2022-10-15T12:11:10.069Z,68.72
2022-10-15T12:12:31.073Z,69.21
2022-10-15T12:13:48.665Z,68.76
2022-10-15T12:15:40.832Z,68.71
2022-10-15T12:17:20.653Z,70.24
2022-10-15T12:18:29.160Z,69.78
2022-10-15T12:19:50.393Z,69.04
2022-10-15T12:20:55.839Z,70.14
2022-10-15T12:22:07.069Z,69.13
2022-10-15T12:23:40.787Z,68.79
2022-10-15T12:24:50.420Z,69.12
2022-10-15T12:25:53.110Z,68.40
2022-10-15T12:26:55.372Z,68.11
2022-10-15T12:28:02.603Z,67.98
2022-10-15T12:29:07.411Z,68.22
2022-10-15T12:30:13.841Z,67.51
2022-10-15T12:31:20.380Z,67.99
2022-10-15T12:32:36.423Z,68.10
2022-10-15T12:33:48.232Z,67.67
2022-10-15T12:35:02.317Z,67.83
2022-10-15T12:36:30.556Z,67.95
2022-10-15T12:37:36.353Z,67.71
2022-10-15T12:38:43.913Z,69.10
2022-10-15T12:39:52.668Z,69.48
2022-10-15T12:41:20.425Z,69.86
2022-10-15T12:42:33.484Z,68.71
2022-10-15T12:43:41.295Z,68.84
2022-10-15T12:44:50.034Z,68.92
2022-10-15T12:46:02.840Z,68.62
2022-10-15T12:47:06.731Z,69.37
2022-10-15T12:48:08.988Z,70.73
2022-10-15T12:49:35.426Z,72.03
2022-10-15T12:50:37.649Z,71.61
2022-10-15T12:51:41.577Z,71.09
2022-10-15T12:53:00.406Z,71.79
2022-10-15T12:54:33.305Z,70.06
2022-10-15T12:55:38.231Z,69.18
2022-10-15T12:56:41.983Z,68.68
2022-10-15T12:57:46.929Z,68.96
2022-10-15T12:58:56.213Z,69.09
2022-10-15T13:00:01.813Z,68.13
2022-10-15T13:01:23.969Z,68.43
2022-10-15T13:02:50.214Z,68.58
2022-10-15T13:04:02.499Z,67.86
2022-10-15T13:05:19.342Z,68.17
2022-10-15T13:06:22.565Z,68.04
2022-10-15T13:07:28.302Z,69.10
2022-10-15T13:08:32.055Z,68.62
2022-10-15T13:15:31.400Z,68.24
2022-10-15T13:21:12.973Z,70.56
2022-10-15T13:22:36.408Z,70.50
2022-10-15T13:23:49.957Z,70.24
2022-10-15T13:24:56.262Z,70.13
2022-10-15T13:26:19.364Z,70.44
2022-10-15T13:27:37.434Z,70.72
2022-10-15T13:28:45.245Z,70.36
2022-10-15T13:30:05.495Z,70.76
2022-10-15T13:31:45.353Z,70.40
2022-10-15T13:32:53.027Z,71.40
2022-10-15T13:34:13.846Z,71.75
2022-10-15T13:35:29.495Z,71.69
2022-10-15T13:36:35.446Z,71.63
2022-10-15T13:37:46.229Z,71.36
2022-10-15T13:38:55.639Z,71.85
2022-10-15T13:40:03.087Z,71.83
2022-10-15T13:41:09.886Z,72.49
2022-10-15T13:42:17.327Z,71.83
2022-10-15T13:43:22.899Z,72.36
2022-10-15T13:44:25.886Z,72.27
2022-10-15T13:45:29.743Z,72.72
2022-10-15T13:46:38.224Z,72.45
2022-10-15T13:47:43.371Z,72.51
2022-10-15T13:48:46.066Z,72.88
2022-10-15T13:49:52.120Z,74.52
2022-10-15T13:51:06.054Z,74.08
2022-10-15T13:52:10.513Z,74.28
2022-10-15T13:53:29.953Z,73.96
2022-10-15T13:54:33.222Z,73.87
2022-10-15T13:55:44.652Z,74.08
2022-10-15T13:57:02.307Z,74.39
2022-10-15T13:58:14.600Z,76.78
2022-10-15T13:59:20.470Z,76.74
2022-10-15T14:00:38.066Z,75.52
2022-10-15T14:01:48.364Z,75.34
2022-10-15T14:03:22.428Z,75.10
2022-10-15T14:04:24.956Z,75.75
2022-10-15T14:05:27.777Z,76.01
2022-10-15T14:06:38.366Z,75.98
2022-10-15T14:07:40.921Z,76.76
2022-10-15T14:08:43.161Z,76.29
2022-10-15T14:09:49.163Z,76.51
2022-10-15T14:10:55.542Z,76.56
2022-10-15T14:12:02.252Z,78.71
2022-10-15T14:13:08.789Z,78.07
2022-10-15T14:14:41.846Z,76.88
2022-10-15T14:15:52.389Z,77.94
2022-10-15T14:17:02.004Z,78.50
2022-10-15T14:18:04.611Z,76.86
2022-10-15T14:19:07.699Z,77.71
2022-10-15T14:20:27.222Z,78.90
2022-10-15T14:21:32.859Z,78.00
2022-10-15T14:22:44.785Z,78.22
2022-10-15T14:23:49.216Z,78.53
2022-10-15T14:24:56.975Z,78.90
2022-10-15T14:26:02.763Z,78.26
2022-10-15T14:27:16.225Z,78.53
2022-10-15T14:28:22.338Z,77.76
2022-10-15T14:29:35.910Z,78.59
2022-10-15T14:30:39.612Z,78.87
2022-10-15T14:31:48.504Z,79.25
2022-10-15T14:32:56.939Z,80.00
2022-10-15T14:34:03.393Z,80.49
2022-10-15T14:35:10.785Z,80.41
2022-10-15T14:36:26.756Z,79.96
2022-10-15T14:37:45.562Z,79.70
2022-10-15T14:38:51.450Z,79.71
2022-10-15T14:40:11.273Z,79.28
2022-10-15T14:41:35.078Z,79.71
2022-10-15T14:43:06.697Z,80.76
2022-10-15T14:44:11.642Z,80.69
2022-10-15T14:45:42.383Z,79.96
2022-10-15T14:47:08.691Z,81.29
2022-10-15T14:48:39.682Z,82.28
2022-10-15T14:49:49.271Z,81.57
2022-10-15T14:50:58.244Z,81.15
2022-10-15T14:52:21.410Z,80.69
2022-10-15T14:53:48.243Z,80.44
2022-10-15T14:56:01.067Z,80.83
2022-10-15T14:57:24.541Z,81.37
2022-10-15T14:58:31.078Z,82.63
2022-10-15T14:59:38.127Z,83.08
2022-10-15T15:00:55.163Z,82.77
2022-10-15T15:02:06.470Z,82.13
2022-10-15T15:03:17.869Z,83.56
2022-10-15T15:05:14.592Z,81.75
2022-10-15T15:06:34.989Z,81.21
2022-10-15T15:07:41.302Z,81.87
2022-10-15T15:08:46.522Z,82.19
2022-10-15T15:09:52.090Z,82.95
2022-10-15T15:11:00.325Z,81.94
2022-10-15T15:12:07.701Z,82.01
2022-10-15T15:13:22.327Z,82.67
2022-10-15T15:14:40.425Z,82.07
2022-10-15T15:15:44.084Z,81.77
2022-10-15T15:16:49.060Z,82.24
2022-10-15T15:17:54.046Z,82.63
2022-10-15T15:18:58.743Z,82.57
2022-10-15T15:20:01.367Z,83.62
2022-10-15T15:21:08.167Z,84.27
2022-10-15T15:22:16.897Z,83.88
2022-10-15T15:23:25.453Z,84.27